createdAt,value
2023-03-08T00:01:16.934Z,11.67
2023-03-08T00:07:18.818Z,10.73
2023-03-08T00:13:20.617Z,9.57
2023-03-08T00:19:22.563Z,9.90
2023-03-08T00:25:24.474Z,11.63
2023-03-08T00:31:26.386Z,13.32
2023-03-08T00:37:28.384Z,10.00
2023-03-08T00:43:30.547Z,11.20
2023-03-08T00:49:32.357Z,11.07
2023-03-08T00:55:35.340Z,10.80
2023-03-08T01:01:37.082Z,12.15
2023-03-08T01:07:38.974Z,10.43
2023-03-08T01:13:40.765Z,10.93
2023-03-08T01:19:42.606Z,11.75
2023-03-08T01:25:44.469Z,13.13
2023-03-08T01:31:46.343Z,11.13
2023-03-08T01:37:53.736Z,11.60
2023-03-08T01:43:55.741Z,8.88
2023-03-08T01:50:05.457Z,8.65
2023-03-08T01:56:11.631Z,9.35
2023-03-08T02:02:13.581Z,11.75
2023-03-08T02:08:15.364Z,10.30
2023-03-08T02:14:17.292Z,10.38
2023-03-08T02:20:30.571Z,8.50
2023-03-08T02:26:33.925Z,7.20
2023-03-08T02:32:36.134Z,8.45
2023-03-08T02:38:38.059Z,8.73
2023-03-08T02:44:39.835Z,7.70
2023-03-08T02:50:41.852Z,10.30
2023-03-08T02:56:43.700Z,8.50
2023-03-08T03:02:45.690Z,12.65
2023-03-08T03:08:48.660Z,12.30
2023-03-08T03:14:50.583Z,12.52
2023-03-08T03:20:52.523Z,10.20
2023-03-08T03:26:54.530Z,10.63
2023-03-08T03:32:56.471Z,13.27
2023-03-08T03:38:58.879Z,10.88
2023-03-08T03:45:00.767Z,11.00
2023-03-08T03:51:06.374Z,14.85
2023-03-08T03:57:08.284Z,10.98
2023-03-08T04:03:10.417Z,12.15
2023-03-08T04:09:17.720Z,13.25
2023-03-08T04:15:19.845Z,13.90
2023-03-08T04:21:24.758Z,14.10
2023-03-08T04:27:26.730Z,14.25
2023-03-08T04:33:29.768Z,13.75
2023-03-08T04:39:31.725Z,15.55
2023-03-08T04:45:33.584Z,12.68
2023-03-08T04:51:35.516Z,15.80
2023-03-08T04:57:37.410Z,18.05
2023-03-08T05:03:39.323Z,16.77
2023-03-08T05:09:42.847Z,16.60
2023-03-08T05:15:44.898Z,18.80
2023-03-08T05:21:46.770Z,19.63
2023-03-08T05:27:48.698Z,20.58
2023-03-08T05:33:52.124Z,25.48
2023-03-08T05:39:54.122Z,23.80
2023-03-08T05:46:18.071Z,26.55
2023-03-08T05:52:20.057Z,30.77
2023-03-08T05:58:21.905Z,29.63
2023-03-08T06:04:23.922Z,30.85
2023-03-08T06:10:26.158Z,38.13
2023-03-08T06:16:28.129Z,36.70
2023-03-08T06:22:30.033Z,32.35
2023-03-08T06:28:32.588Z,30.42
2023-03-08T06:34:34.514Z,34.47
2023-03-08T06:40:36.579Z,37.50
2023-03-08T06:46:38.437Z,33.42
2023-03-08T06:52:40.357Z,33.63
2023-03-08T06:58:42.785Z,38.55
2023-03-08T07:04:44.765Z,31.58
2023-03-08T07:10:46.766Z,31.17
2023-03-08T07:16:48.694Z,24.63
2023-03-08T07:22:51.328Z,31.77
2023-03-08T07:28:53.185Z,28.70
2023-03-08T07:34:56.257Z,33.22
2023-03-08T07:40:58.371Z,34.45
2023-03-08T07:47:00.195Z,32.90
2023-03-08T07:53:02.368Z,34.63
2023-03-08T07:59:04.364Z,33.97
2023-03-08T08:05:06.598Z,30.52
2023-03-08T08:11:16.179Z,35.15
2023-03-08T08:17:19.499Z,34.60
2023-03-08T08:23:21.448Z,25.05
2023-03-08T08:29:23.823Z,29.70
2023-03-08T08:35:40.845Z,32.03
2023-03-08T08:41:44.250Z,33.78
2023-03-08T08:47:46.086Z,29.25
2023-03-08T08:53:48.265Z,32.97
2023-03-08T08:59:50.161Z,29.65
2023-03-08T09:05:52.155Z,31.52
2023-03-08T09:11:56.094Z,26.65
2023-03-08T09:17:58.363Z,31.00
2023-03-08T09:24:03.348Z,30.70
2023-03-08T09:30:07.040Z,32.80
2023-03-08T09:36:09.604Z,29.37
2023-03-08T09:42:39.264Z,30.63
2023-03-08T09:48:46.540Z,32.60
2023-03-08T09:54:49.992Z,28.55
2023-03-08T10:00:52.113Z,26.63
2023-03-08T10:07:09.352Z,26.00
2023-03-08T10:13:14.045Z,22.88
2023-03-08T10:25:34.910Z,15.25
2023-03-08T10:31:36.947Z,14.27
2023-03-08T10:37:38.890Z,11.40
2023-03-08T10:43:53.092Z,8.82
2023-03-08T10:50:18.220Z,6.85
2023-03-08T10:56:32.198Z,6.68
2023-03-08T11:02:34.222Z,5.30
2023-03-08T11:08:39.084Z,6.50
2023-03-08T11:14:42.276Z,5.78
2023-03-08T11:20:58.660Z,8.25
2023-03-08T11:27:09.536Z,6.40
2023-03-08T11:33:37.206Z,6.82
2023-03-08T11:39:49.548Z,5.68
2023-03-08T11:46:16.047Z,6.20
2023-03-08T11:52:36.345Z,5.18
2023-03-08T11:58:57.076Z,6.43
2023-03-08T12:05:13.533Z,5.88
2023-03-08T12:11:30.048Z,6.72
2023-03-08T12:17:46.182Z,5.20
2023-03-08T12:24:20.312Z,8.77
2023-03-08T12:30:51.869Z,6.37
2023-03-08T12:36:54.497Z,5.47
2023-03-08T12:43:30.856Z,6.03
2023-03-08T12:49:36.244Z,6.00
2023-03-08T12:55:38.106Z,5.95
2023-03-08T13:01:45.870Z,5.75
2023-03-08T13:08:08.240Z,4.45
2023-03-08T13:14:40.631Z,5.03
2023-03-08T13:21:00.827Z,5.00
2023-03-08T13:27:28.487Z,4.88
2023-03-08T13:33:36.654Z,5.70
2023-03-08T13:39:38.680Z,5.25
2023-03-08T13:45:41.747Z,6.00
2023-03-08T13:51:47.237Z,4.57
2023-03-08T13:57:52.453Z,3.38
2023-03-08T14:03:56.009Z,3.67
2023-03-08T14:09:58.765Z,3.00
2023-03-08T14:16:03.636Z,3.63
2023-03-08T14:22:32.286Z,3.75
2023-03-08T14:28:41.839Z,4.78
2023-03-08T14:34:46.889Z,4.25
2023-03-08T14:40:50.369Z,6.72
2023-03-08T14:46:58.411Z,6.05
2023-03-08T14:53:02.735Z,5.38
2023-03-08T14:59:05.877Z,6.22
2023-03-08T15:05:16.033Z,5.43
2023-03-08T15:11:22.230Z,6.35
2023-03-08T15:17:24.278Z,5.43
2023-03-08T15:23:33.198Z,4.72
2023-03-08T15:29:36.991Z,5.47
2023-03-08T15:35:39.708Z,3.60
2023-03-08T15:41:41.745Z,3.78
2023-03-08T15:47:44.152Z,4.57
2023-03-08T15:53:46.646Z,5.10
2023-03-08T15:59:49.434Z,5.32
2023-03-08T16:05:51.855Z,4.72
2023-03-08T16:11:53.998Z,4.82
2023-03-08T16:17:55.802Z,5.03
2023-03-08T16:23:59.667Z,5.85
2023-03-08T16:30:02.213Z,5.40
2023-03-08T16:36:04.391Z,6.57
2023-03-08T16:42:10.363Z,7.53
2023-03-08T16:48:12.245Z,7.20
2023-03-08T16:54:14.161Z,8.05
2023-03-08T17:00:17.316Z,8.32
2023-03-08T17:06:21.403Z,8.90
2023-03-08T17:12:23.344Z,10.48
2023-03-08T17:18:25.990Z,12.18
2023-03-08T17:24:30.548Z,14.02
2023-03-08T17:30:33.308Z,11.73
2023-03-08T17:36:35.511Z,10.82
2023-03-08T17:42:37.595Z,12.27
2023-03-08T17:48:39.399Z,13.15
2023-03-08T17:54:41.237Z,12.70
2023-03-08T18:00:43.149Z,13.73
2023-03-08T18:06:45.006Z,15.88
2023-03-08T18:12:47.617Z,20.98
2023-03-08T18:18:50.251Z,18.27
2023-03-08T18:24:52.235Z,20.33
2023-03-08T18:30:54.250Z,17.38
2023-03-08T18:36:58.697Z,18.95
2023-03-08T18:43:00.849Z,19.08
2023-03-08T18:49:06.960Z,19.83
2023-03-08T18:55:09.815Z,24.33
2023-03-08T19:01:15.588Z,22.38
2023-03-08T19:07:17.535Z,19.60
2023-03-08T19:13:19.319Z,24.13
2023-03-08T19:19:21.399Z,19.15
2023-03-08T19:25:23.204Z,22.27
2023-03-08T19:31:25.213Z,21.15
2023-03-08T19:37:27.117Z,19.70
2023-03-08T19:43:28.966Z,20.00
2023-03-08T19:49:33.681Z,22.55
2023-03-08T19:55:35.443Z,22.70
2023-03-08T20:01:39.573Z,22.42
2023-03-08T20:07:41.572Z,23.90
2023-03-08T20:13:43.547Z,22.73
2023-03-08T20:19:45.681Z,23.35
2023-03-08T20:25:47.791Z,27.83
2023-03-08T20:31:50.147Z,26.92
2023-03-08T20:37:52.154Z,26.75
2023-03-08T20:43:55.843Z,26.17
2023-03-08T20:49:57.644Z,27.67
2023-03-08T20:55:59.884Z,28.45
2023-03-08T21:02:01.980Z,29.63
2023-03-08T21:08:04.449Z,27.92
2023-03-08T21:14:06.571Z,27.45
2023-03-08T21:20:09.941Z,25.90
2023-03-08T21:26:14.054Z,27.05
2023-03-08T21:32:16.141Z,28.70
2023-03-08T21:38:17.991Z,29.85
2023-03-08T21:44:21.227Z,27.88
2023-03-08T21:50:23.341Z,25.10
2023-03-08T21:56:25.225Z,30.83
2023-03-08T22:02:27.183Z,25.92
2023-03-08T22:08:29.528Z,26.92
2023-03-08T22:14:33.254Z,27.17
2023-03-08T22:20:35.371Z,27.83
2023-03-08T22:26:37.333Z,29.08
2023-03-08T22:32:40.944Z,25.75
2023-03-08T22:38:43.251Z,27.23
2023-03-08T22:44:45.012Z,27.30
2023-03-08T22:50:47.091Z,27.02
2023-03-08T22:56:50.055Z,23.75
2023-03-08T23:02:56.889Z,26.17
2023-03-08T23:09:08.333Z,24.67
2023-03-08T23:15:10.660Z,26.88
2023-03-08T23:21:15.136Z,26.60
2023-03-08T23:27:17.217Z,27.17
2023-03-08T23:33:19.268Z,27.10
2023-03-08T23:39:21.334Z,30.65
2023-03-08T23:45:23.219Z,27.48
2023-03-08T23:51:27.017Z,27.17
2023-03-08T23:57:28.943Z,28.23
